Time;durP1;ratioP1;P1;durP2;ratioP2;P2;SDS_P1;SDS_P2;PMS_P1;PMS_P2;Temp;Humidity;BMP_temperature;BMP_pressure;BME280_temperature;BME280_humidity;BME280_pressure;Samples;Min_cycle;Max_cycle;Signal;HPM_P1;HPM_P2
2021/08/29 00:01:18;;;;;;;2.83;1.27;;;14.90;95.90;;;;;;5049703;28;20095;-75
2021/08/29 00:03:43;;;;;;;3.88;1.30;;;14.80;96.00;;;;;;5059055;28;20427;-75
2021/08/29 00:06:09;;;;;;;5.28;1.27;;;14.80;96.10;;;;;;5052683;28;20860;-75
2021/08/29 00:08:35;;;;;;;4.32;1.40;;;14.70;96.20;;;;;;5069851;28;20090;-75
2021/08/29 00:11:01;;;;;;;4.78;1.20;;;14.50;96.50;;;;;;5060928;28;20052;-75
2021/08/29 00:13:27;;;;;;;4.75;1.10;;;14.50;96.60;;;;;;5066784;28;20043;-75
2021/08/29 00:15:53;;;;;;;2.78;1.10;;;14.60;96.10;;;;;;5055539;28;20036;-75
2021/08/29 00:18:18;;;;;;;3.00;1.25;;;14.70;96.20;;;;;;5048853;28;20041;-74
2021/08/29 00:20:45;;;;;;;4.50;1.00;;;14.60;96.20;;;;;;5049402;28;20099;-74
2021/08/29 00:23:11;;;;;;;5.60;1.15;;;14.50;96.20;;;;;;5049522;28;20033;-75
2021/08/29 00:25:36;;;;;;;1.77;0.80;;;14.50;96.10;;;;;;5049337;28;20546;-75
2021/08/29 00:28:03;;;;;;;4.63;1.02;;;14.60;95.90;;;;;;5048559;28;20111;-75
2021/08/29 00:30:29;;;;;;;3.00;1.13;;;14.60;95.80;;;;;;5049603;28;20025;-75
2021/08/29 00:32:55;;;;;;;4.15;1.10;;;14.50;96.10;;;;;;5058360;28;20048;-75
2021/08/29 00:35:21;;;;;;;4.82;0.98;;;14.40;96.20;;;;;;5069299;28;20055;-75
2021/08/29 00:37:46;;;;;;;4.63;1.52;;;14.40;96.70;;;;;;5049862;28;20112;-74
2021/08/29 00:40:18;;;;;;;5.45;1.50;;;14.30;97.10;;;;;;5045938;28;20029;-76
2021/08/29 00:42:49;;;;;;;3.03;1.15;;;14.30;97.30;;;;;;5048295;28;20086;-75
2021/08/29 00:45:16;;;;;;;3.65;1.40;;;14.10;97.60;;;;;;5049898;28;20538;-75
2021/08/29 00:47:42;;;;;;;6.82;1.58;;;14.10;97.70;;;;;;5042086;28;20029;-75
2021/08/29 00:50:08;;;;;;;5.85;1.55;;;14.10;97.70;;;;;;5041947;28;20113;-75
2021/08/29 00:52:41;;;;;;;3.92;1.27;;;14.00;98.00;;;;;;5041383;28;20091;-75
2021/08/29 00:55:09;;;;;;;5.43;1.17;;;14.00;97.70;;;;;;5048686;28;20051;-75
2021/08/29 00:57:36;;;;;;;3.97;1.42;;;14.00;97.80;;;;;;5048962;28;20041;-75
2021/08/29 01:00:05;;;;;;;2.92;1.30;;;14.10;97.60;;;;;;5048332;28;20029;-75
2021/08/29 01:02:33;;;;;;;5.05;1.20;;;14.10;97.50;;;;;;5048374;28;20037;-75
2021/08/29 01:05:05;;;;;;;6.22;1.20;;;14.20;97.30;;;;;;5048316;28;20063;-75
2021/08/29 01:07:38;;;;;;;3.10;1.15;;;14.30;97.20;;;;;;5048760;28;20052;-74
2021/08/29 01:10:09;;;;;;;2.40;1.10;;;14.20;97.40;;;;;;5048465;28;20037;-75
2021/08/29 01:12:37;;;;;;;4.03;1.00;;;14.30;97.10;;;;;;5050754;28;20036;-75
2021/08/29 01:15:05;;;;;;;3.17;1.10;;;14.10;97.50;;;;;;5056085;28;20071;-75
2021/08/29 01:17:33;;;;;;;4.75;0.93;;;14.00;97.60;;;;;;5067177;28;20136;-75
2021/08/29 01:20:21;;;;;;;4.38;1.13;;;14.10;97.40;;;;;;5066297;28;20111;-75
2021/08/29 01:22:48;;;;;;;3.35;1.15;;;14.20;97.40;;;;;;5051761;28;20038;-75
2021/08/29 01:25:20;;;;;;;3.55;1.40;;;14.30;97.30;;;;;;5052297;28;20536;-75
2021/08/29 01:28:01;;;;;;;5.45;1.55;;;14.30;97.50;;;;;;5051980;28;20635;-75
2021/08/29 01:30:28;;;;;;;5.00;1.83;;;14.20;97.70;;;;;;5052651;28;20037;-75
2021/08/29 01:32:58;;;;;;;3.97;1.65;;;14.20;97.80;;;;;;5051250;28;20053;-75
2021/08/29 01:35:24;;;;;;;4.53;1.77;;;14.30;97.80;;;;;;5052439;28;20432;-75
2021/08/29 01:37:51;;;;;;;3.42;1.35;;;14.20;98.10;;;;;;5051812;28;20052;-74
2021/08/29 01:40:17;;;;;;;8.27;1.70;;;14.20;98.20;;;;;;5051335;28;20056;-75
2021/08/29 01:42:44;;;;;;;6.60;2.10;;;14.10;98.00;;;;;;5051393;28;20112;-74
2021/08/29 01:45:10;;;;;;;3.53;1.17;;;14.00;98.20;;;;;;5050923;28;20041;-74
2021/08/29 01:47:36;;;;;;;4.22;1.30;;;14.00;98.10;;;;;;5051809;28;20033;-74
2021/08/29 01:50:03;;;;;;;4.10;1.40;;;13.90;98.20;;;;;;5051577;28;20489;-75
2021/08/29 01:52:28;;;;;;;3.95;1.65;;;13.90;98.10;;;;;;5051668;28;20051;-75
2021/08/29 01:54:54;;;;;;;4.15;1.60;;;13.90;98.10;;;;;;5051448;28;20025;-75
2021/08/29 01:57:20;;;;;;;3.15;1.40;;;13.80;98.30;;;;;;5051097;28;20090;-75
2021/08/29 01:59:45;;;;;;;3.83;1.48;;;13.80;98.20;;;;;;5051662;28;20108;-74
2021/08/29 02:02:13;;;;;;;2.78;1.13;;;13.70;98.20;;;;;;5050585;28;20040;-75
2021/08/29 02:04:40;;;;;;;3.88;1.25;;;13.80;98.00;;;;;;5050841;28;20025;-75
2021/08/29 02:07:06;;;;;;;3.15;1.27;;;13.80;98.20;;;;;;5050724;28;20086;-75
2021/08/29 02:09:33;;;;;;;2.75;1.10;;;13.70;98.40;;;;;;5051057;28;20423;-75
2021/08/29 02:12:00;;;;;;;3.85;1.30;;;13.80;98.20;;;;;;5050179;28;20040;-74
2021/08/29 02:14:31;;;;;;;2.58;1.15;;;13.70;98.20;;;;;;5050610;28;20033;-74
2021/08/29 02:16:57;;;;;;;3.53;1.20;;;13.90;98.00;;;;;;5050743;28;20136;-75
2021/08/29 02:19:33;;;;;;;3.38;1.13;;;13.80;98.20;;;;;;5050554;28;20078;-75
2021/08/29 02:21:59;;;;;;;2.50;1.15;;;13.80;98.10;;;;;;5050850;28;20033;-74
2021/08/29 02:24:26;;;;;;;3.50;1.00;;;13.80;98.00;;;;;;5050148;28;20047;-75
2021/08/29 02:26:53;;;;;;;2.88;1.00;;;13.80;98.00;;;;;;5050240;28;20493;-75
2021/08/29 02:29:19;;;;;;;2.17;1.10;;;13.80;98.10;;;;;;5050463;28;20857;-75
2021/08/29 02:31:48;;;;;;;3.63;1.33;;;13.80;98.20;;;;;;5050935;28;20051;-75
2021/08/29 02:34:13;;;;;;;2.42;0.80;;;13.80;98.20;;;;;;5050092;28;20048;-75
2021/08/29 02:36:41;;;;;;;3.55;1.35;;;13.70;98.30;;;;;;5049906;28;20033;-75
2021/08/29 02:39:07;;;;;;;3.45;1.45;;;13.80;98.10;;;;;;5050008;28;20043;-75
2021/08/29 02:41:36;;;;;;;2.50;1.10;;;13.60;98.40;;;;;;5051012;28;20058;-74
2021/08/29 02:44:03;;;;;;;6.05;1.40;;;13.60;98.30;;;;;;5049921;28;20037;-74
2021/08/29 02:46:28;;;;;;;4.25;1.27;;;13.60;98.30;;;;;;5056546;28;20028;-75
2021/08/29 02:48:55;;;;;;;2.92;1.00;;;13.70;98.10;;;;;;5066354;28;20206;-74
2021/08/29 02:51:23;;;;;;;3.35;1.13;;;13.50;98.30;;;;;;5059880;28;20103;-75
2021/08/29 02:53:49;;;;;;;3.58;1.02;;;13.50;98.60;;;;;;5061996;28;20033;-74
2021/08/29 02:56:17;;;;;;;5.15;1.10;;;13.40;98.60;;;;;;5051875;28;20036;-75
2021/08/29 02:58:45;;;;;;;3.10;1.30;;;13.20;99.00;;;;;;5050680;28;20033;-75
2021/08/29 03:01:11;;;;;;;2.45;1.08;;;13.10;99.30;;;;;;5049707;28;20031;-75
2021/08/29 03:03:36;;;;;;;3.50;1.30;;;13.20;99.30;;;;;;5050796;28;20041;-75
2021/08/29 03:06:02;;;;;;;4.28;1.30;;;13.20;99.20;;;;;;5049528;28;20029;-75
2021/08/29 03:08:28;;;;;;;3.50;1.17;;;13.00;99.60;;;;;;5051041;28;20067;-75
2021/08/29 03:10:54;;;;;;;3.13;0.95;;;13.20;99.30;;;;;;5049444;28;20118;-75
2021/08/29 03:13:20;;;;;;;5.65;1.15;;;13.20;99.00;;;;;;5050046;28;20033;-75
2021/08/29 03:15:46;;;;;;;6.53;1.05;;;13.10;99.40;;;;;;5050169;28;20040;-75
2021/08/29 03:18:12;;;;;;;2.28;0.93;;;13.10;99.50;;;;;;5049902;28;21623;-75
2021/08/29 03:20:39;;;;;;;2.92;1.00;;;13.10;99.10;;;;;;5050246;28;20043;-74
2021/08/29 03:23:05;;;;;;;4.30;1.10;;;13.20;99.10;;;;;;5049480;28;20031;-74
2021/08/29 03:25:31;;;;;;;3.83;1.40;;;13.20;99.20;;;;;;5049921;28;20119;-75
2021/08/29 03:27:56;;;;;;;2.78;1.20;;;13.20;99.30;;;;;;5049869;28;20045;-75
2021/08/29 03:30:22;;;;;;;3.50;1.20;;;13.00;99.30;;;;;;5049214;28;20043;-75
2021/08/29 03:32:48;;;;;;;3.05;1.35;;;12.90;99.70;;;;;;5049159;28;20060;-74
2021/08/29 03:35:14;;;;;;;1.40;0.80;;;13.00;99.70;;;;;;5049075;28;20040;-77
2021/08/29 03:37:43;;;;;;;4.20;1.23;;;13.10;99.50;;;;;;5049361;28;20552;-77
2021/08/29 03:40:09;;;;;;;2.42;0.88;;;13.10;99.70;;;;;;5049135;28;20459;-75
2021/08/29 03:42:35;;;;;;;2.95;1.00;;;13.00;99.40;;;;;;5049977;28;20103;-75
2021/08/29 03:45:05;;;;;;;3.70;1.27;;;12.70;99.90;;;;;;5049138;28;20051;-75
2021/08/29 03:47:31;;;;;;;2.63;1.10;;;12.70;99.90;;;;;;5029794;28;20056;-75
2021/08/29 03:49:57;;;;;;;2.83;1.20;;;12.80;99.90;;;;;;5028744;28;20034;-75
2021/08/29 03:52:23;;;;;;;2.83;0.90;;;12.90;99.90;;;;;;5046416;28;20552;-74
2021/08/29 03:54:49;;;;;;;4.00;1.00;;;13.00;99.90;;;;;;5049078;28;20098;-75
2021/08/29 03:57:15;;;;;;;2.63;1.10;;;13.10;99.90;;;;;;5049029;28;20090;-74
2021/08/29 03:59:41;;;;;;;3.05;1.13;;;13.00;99.70;;;;;;5049488;28;20021;-75
2021/08/29 04:02:08;;;;;;;5.85;1.38;;;13.10;99.80;;;;;;5048496;28;20037;-74
2021/08/29 04:04:34;;;;;;;3.30;1.00;;;12.90;99.70;;;;;;5049055;28;20104;-75
2021/08/29 04:07:02;;;;;;;4.03;1.20;;;12.90;99.80;;;;;;5050747;28;20454;-74
2021/08/29 04:09:30;;;;;;;2.58;1.30;;;12.70;99.80;;;;;;5053801;28;20847;-75
2021/08/29 04:11:56;;;;;;;2.83;1.20;;;12.50;99.90;;;;;;5049135;28;20428;-74
2021/08/29 04:14:22;;;;;;;3.58;1.10;;;12.60;99.90;;;;;;5036374;28;20053;-74
2021/08/29 04:16:50;;;;;;;6.15;1.25;;;12.60;99.90;;;;;;5048472;28;20478;-74
2021/08/29 04:19:16;;;;;;;4.10;1.40;;;12.50;99.90;;;;;;5049322;28;20037;-75
2021/08/29 04:21:42;;;;;;;4.68;1.35;;;12.40;99.90;;;;;;5048388;28;20031;-75
2021/08/29 04:24:08;;;;;;;4.43;1.15;;;12.40;99.90;;;;;;5049405;28;20731;-74
2021/08/29 04:26:34;;;;;;;3.15;1.30;;;12.40;99.90;;;;;;5048377;28;20120;-75
2021/08/29 04:29:00;;;;;;;4.03;1.10;;;12.50;99.90;;;;;;5049203;28;20136;-75
2021/08/29 04:31:32;;;;;;;2.63;1.25;;;12.50;99.90;;;;;;5048273;28;20075;-75
2021/08/29 04:34:03;;;;;;;3.67;1.30;;;12.30;99.90;;;;;;5049167;28;20072;-74
2021/08/29 04:36:30;;;;;;;2.30;1.10;;;12.30;99.90;;;;;;5048445;28;20033;-77
2021/08/29 04:38:59;;;;;;;2.30;1.05;;;12.50;99.90;;;;;;5049802;28;20064;-75
2021/08/29 04:41:25;;;;;;;3.00;1.10;;;12.50;99.90;;;;;;5048511;28;20037;-75
2021/08/29 04:43:51;;;;;;;2.92;1.15;;;12.50;99.90;;;;;;5049869;28;20048;-75
2021/08/29 04:46:17;;;;;;;4.90;1.52;;;12.50;99.90;;;;;;5048653;28;20032;-74
2021/08/29 04:48:42;;;;;;;2.13;1.05;;;12.50;99.90;;;;;;5048799;28;20044;-75
2021/08/29 04:51:08;;;;;;;4.47;1.10;;;12.50;99.90;;;;;;5051196;28;20044;-75
2021/08/29 04:53:34;;;;;;;4.13;1.33;;;12.50;99.90;;;;;;5052355;28;20107;-75
2021/08/29 04:56:00;;;;;;;4.25;1.75;;;12.50;99.90;;;;;;5052324;28;20463;-75
2021/08/29 04:58:26;;;;;;;3.22;1.17;;;12.50;99.90;;;;;;5056087;28;20374;-75
2021/08/29 05:00:51;;;;;;;1.63;0.90;;;12.50;99.90;;;;;;5066852;28;20048;-75
2021/08/29 05:03:17;;;;;;;3.65;1.10;;;12.60;99.90;;;;;;5052097;28;20037;-75
2021/08/29 05:05:43;;;;;;;3.13;1.02;;;12.60;99.90;;;;;;5051251;28;20716;-75
2021/08/29 05:08:08;;;;;;;3.65;1.10;;;12.70;99.90;;;;;;5052299;28;20116;-75
2021/08/29 05:10:34;;;;;;;3.08;0.95;;;12.70;99.90;;;;;;5051521;28;20697;-75
2021/08/29 05:13:00;;;;;;;3.30;1.20;;;12.60;99.90;;;;;;5051622;28;20086;-75
2021/08/29 05:15:25;;;;;;;2.67;1.05;;;12.50;99.90;;;;;;5051677;28;20115;-75
2021/08/29 05:17:51;;;;;;;2.95;1.00;;;12.50;99.90;;;;;;5051044;28;20033;-74
2021/08/29 05:20:17;;;;;;;2.42;1.08;;;12.50;99.90;;;;;;5052191;28;20040;-74
2021/08/29 05:22:42;;;;;;;2.95;1.00;;;12.40;99.90;;;;;;5051452;28;20063;-75
2021/08/29 05:25:08;;;;;;;2.78;0.82;;;12.50;99.90;;;;;;5052817;28;20082;-75
2021/08/29 05:27:34;;;;;;;2.58;1.00;;;12.50;99.90;;;;;;5053112;28;20025;-75
2021/08/29 05:30:00;;;;;;;3.22;1.02;;;12.60;99.90;;;;;;5052191;28;20037;-75
2021/08/29 05:32:25;;;;;;;1.90;0.90;;;12.60;99.90;;;;;;5051850;28;20052;-75
2021/08/29 05:34:51;;;;;;;2.40;1.13;;;12.60;99.90;;;;;;5051597;28;20437;-76
2021/08/29 05:37:16;;;;;;;5.32;1.10;;;12.70;99.90;;;;;;5052296;28;20033;-76
2021/08/29 05:39:42;;;;;;;3.58;1.00;;;12.70;99.90;;;;;;5051799;28;20029;-76
2021/08/29 05:42:07;;;;;;;3.17;1.25;;;12.40;99.90;;;;;;5052318;28;20036;-76
2021/08/29 05:44:33;;;;;;;4.43;1.33;;;12.50;99.90;;;;;;5060367;28;20055;-76
2021/08/29 05:46:59;;;;;;;3.22;1.10;;;12.50;99.90;;;;;;5055022;28;20378;-76
2021/08/29 05:49:25;;;;;;;3.17;1.00;;;12.50;99.90;;;;;;5051474;28;20036;-76
2021/08/29 05:51:50;;;;;;;5.55;1.10;;;12.60;99.90;;;;;;5051022;28;20039;-76
2021/08/29 05:54:17;;;;;;;3.20;1.23;;;12.40;99.90;;;;;;5051396;28;20033;-76
2021/08/29 05:56:43;;;;;;;4.75;0.90;;;12.50;99.90;;;;;;5051023;28;20048;-76
2021/08/29 05:59:09;;;;;;;3.95;1.00;;;12.60;99.90;;;;;;5051424;28;20474;-76
2021/08/29 06:01:34;;;;;;;2.58;0.90;;;12.80;99.90;;;;;;5050577;28;20587;-76
2021/08/29 06:04:00;;;;;;;3.50;1.17;;;12.90;99.90;;;;;;5052146;28;20033;-76
2021/08/29 06:06:26;;;;;;;2.35;1.13;;;13.10;99.90;;;;;;5050501;28;20036;-76
2021/08/29 06:08:52;;;;;;;4.15;1.23;;;13.30;99.90;;;;;;5051668;28;20041;-76
2021/08/29 06:11:17;;;;;;;4.43;1.35;;;13.40;99.90;;;;;;5050430;28;20021;-76
2021/08/29 06:13:43;;;;;;;6.00;1.30;;;13.50;99.90;;;;;;5050156;28;20036;-77
2021/08/29 06:16:09;;;;;;;6.45;1.30;;;13.70;99.90;;;;;;5050108;28;20075;-76
2021/08/29 06:18:34;;;;;;;2.65;1.02;;;13.90;99.90;;;;;;5051199;28;20113;-76
2021/08/29 06:21:00;;;;;;;3.63;1.10;;;14.20;99.20;;;;;;5050648;28;20025;-76
2021/08/29 06:23:25;;;;;;;3.13;1.00;;;14.50;98.90;;;;;;5048053;28;20102;-76
2021/08/29 06:25:51;;;;;;;4.13;1.13;;;14.60;98.30;;;;;;5050408;28;20033;-76
2021/08/29 06:28:17;;;;;;;3.28;1.00;;;14.90;97.90;;;;;;5049769;28;20041;-76
2021/08/29 06:30:42;;;;;;;3.28;1.17;;;15.10;97.50;;;;;;5051051;28;20150;-76
2021/08/29 06:33:08;;;;;;;4.88;2.38;;;15.10;97.20;;;;;;5050019;28;20060;-76
2021/08/29 06:35:33;;;;;;;4.80;2.00;;;15.30;97.20;;;;;;5050606;28;20100;-76
2021/08/29 06:37:59;;;;;;;3.90;1.63;;;15.50;96.70;;;;;;5050189;28;20052;-76
2021/08/29 06:40:25;;;;;;;3.22;1.10;;;15.60;96.60;;;;;;5050670;28;20581;-76
2021/08/29 06:42:50;;;;;;;2.85;1.10;;;15.60;96.30;;;;;;5050029;28;20041;-76
2021/08/29 06:45:16;;;;;;;2.72;1.08;;;15.60;95.30;;;;;;5039297;28;20021;-76
2021/08/29 06:47:41;;;;;;;3.20;1.20;;;15.60;95.50;;;;;;5051067;28;20047;-76
2021/08/29 06:50:08;;;;;;;2.53;1.20;;;15.60;95.60;;;;;;5046400;28;20382;-76
2021/08/29 06:52:33;;;;;;;3.47;1.20;;;15.60;95.70;;;;;;5049821;28;20059;-76
2021/08/29 06:54:59;;;;;;;2.65;1.10;;;15.80;95.70;;;;;;5046670;28;20467;-76
2021/08/29 06:57:27;;;;;;;3.78;1.05;;;15.90;95.30;;;;;;5047846;28;21025;-76
2021/08/29 06:59:52;;;;;;;4.30;1.23;;;15.90;95.30;;;;;;5043273;28;20024;-76
2021/08/29 07:02:21;;;;;;;3.50;1.17;;;16.00;95.10;;;;;;5046774;28;20489;-76
2021/08/29 07:04:46;;;;;;;2.30;0.90;;;16.10;95.00;;;;;;5044250;28;20021;-76
2021/08/29 07:07:12;;;;;;;2.83;1.02;;;16.00;94.90;;;;;;5046011;28;20667;-76
2021/08/29 07:09:38;;;;;;;3.55;1.38;;;16.20;95.50;;;;;;5050051;28;20047;-76
2021/08/29 07:12:05;;;;;;;3.38;1.40;;;16.20;95.40;;;;;;5049435;28;20044;-76
2021/08/29 07:14:31;;;;;;;2.58;1.05;;;16.20;95.20;;;;;;5048796;28;20544;-76
2021/08/29 07:16:56;;;;;;;3.95;0.98;;;16.30;94.60;;;;;;5048981;28;20128;-76
2021/08/29 07:19:22;;;;;;;3.42;1.45;;;16.30;94.10;;;;;;5041177;28;20029;-75
2021/08/29 07:21:48;;;;;;;2.53;0.82;;;16.30;94.80;;;;;;5047380;28;20491;-76
2021/08/29 07:24:13;;;;;;;1.77;0.88;;;16.80;94.30;;;;;;5042767;28;20041;-76
2021/08/29 07:26:39;;;;;;;5.25;1.05;;;16.90;93.80;;;;;;5049407;28;20414;-76
2021/08/29 07:29:05;;;;;;;3.83;1.20;;;16.80;93.60;;;;;;5048700;28;20041;-76
2021/08/29 07:31:30;;;;;;;2.20;1.08;;;16.90;93.70;;;;;;5049631;28;20032;-76
2021/08/29 07:33:56;;;;;;;3.47;1.00;;;17.10;94.00;;;;;;5048767;28;20126;-76
2021/08/29 07:36:22;;;;;;;3.90;0.88;;;17.00;93.10;;;;;;5047264;28;20160;-75
2021/08/29 07:38:47;;;;;;;2.30;0.73;;;17.20;93.40;;;;;;5046950;28;20119;-76
2021/08/29 07:41:13;;;;;;;1.88;0.77;;;17.60;93.00;;;;;;5045842;28;20036;-76
2021/08/29 07:43:38;;;;;;;3.25;1.15;;;17.50;93.10;;;;;;5041471;28;20540;-76
2021/08/29 07:46:04;;;;;;;2.28;0.85;;;17.50;92.90;;;;;;5045169;28;20035;-77
2021/08/29 07:48:30;;;;;;;3.28;0.90;;;17.40;92.70;;;;;;5047853;28;20158;-76
2021/08/29 07:50:56;;;;;;;2.22;0.80;;;17.20;93.10;;;;;;5053491;28;20063;-76
2021/08/29 07:53:21;;;;;;;2.78;1.10;;;17.10;92.90;;;;;;5050636;28;20110;-76
2021/08/29 07:55:47;;;;;;;5.68;1.13;;;17.00;93.00;;;;;;5047765;28;20040;-76
2021/08/29 07:58:12;;;;;;;2.50;1.10;;;17.30;92.80;;;;;;5049582;28;20122;-76
2021/08/29 08:00:38;;;;;;;2.40;0.82;;;17.50;92.60;;;;;;5047935;28;20529;-76
2021/08/29 08:03:04;;;;;;;2.60;1.02;;;17.60;92.90;;;;;;5048964;28;20033;-76
2021/08/29 08:05:29;;;;;;;1.98;0.98;;;17.90;93.00;;;;;;5045009;28;20037;-76
2021/08/29 08:07:55;;;;;;;2.10;0.90;;;18.10;92.80;;;;;;5042873;28;20694;-75
2021/08/29 08:10:23;;;;;;;3.63;0.70;;;18.30;92.00;;;;;;5047904;28;20041;-75
2021/08/29 08:12:49;;;;;;;2.65;0.90;;;18.30;92.20;;;;;;5048220;28;20063;-75
2021/08/29 08:15:15;;;;;;;1.30;0.60;;;18.60;91.60;;;;;;5047435;28;20477;-75
2021/08/29 08:17:40;;;;;;;3.10;0.80;;;18.50;92.00;;;;;;5046045;28;20388;-74
2021/08/29 08:20:08;;;;;;;2.00;0.80;;;18.70;91.70;;;;;;5043424;28;20033;-75
2021/08/29 08:22:34;;;;;;;2.90;1.00;;;18.60;91.60;;;;;;5045046;28;20051;-74
2021/08/29 08:25:00;;;;;;;2.22;0.70;;;18.60;91.00;;;;;;5049857;28;20032;-74
2021/08/29 08:27:25;;;;;;;1.20;0.60;;;18.50;91.30;;;;;;5049974;28;20024;-75
2021/08/29 08:29:51;;;;;;;3.47;1.20;;;18.70;91.20;;;;;;5049888;28;20029;-75
2021/08/29 08:32:17;;;;;;;1.92;0.75;;;18.60;91.30;;;;;;5049026;28;20160;-74
2021/08/29 08:34:42;;;;;;;2.63;0.90;;;18.60;91.20;;;;;;5050117;28;20363;-74
2021/08/29 08:37:08;;;;;;;2.78;0.77;;;19.00;91.10;;;;;;5048223;28;20079;-74
2021/08/29 08:39:34;;;;;;;1.77;0.75;;;19.30;90.60;;;;;;5046328;28;20073;-75
2021/08/29 08:42:00;;;;;;;1.88;0.80;;;18.80;91.10;;;;;;5038456;28;20120;-74
2021/08/29 08:44:25;;;;;;;2.33;1.00;;;19.30;90.90;;;;;;5049023;28;20476;-74
2021/08/29 08:46:55;;;;;;;2.53;0.70;;;19.70;90.60;;;;;;5047549;28;20041;-74
2021/08/29 08:49:23;;;;;;;5.28;0.80;;;19.80;89.70;;;;;;5050088;28;20487;-74
2021/08/29 08:51:52;;;;;;;1.95;0.60;;;19.50;90.30;;;;;;5048579;28;20029;-74
2021/08/29 08:54:19;;;;;;;2.85;0.82;;;19.70;90.10;;;;;;5049092;28;20025;-74
2021/08/29 08:56:46;;;;;;;2.90;0.88;;;20.00;89.70;;;;;;5049509;28;20108;-74
2021/08/29 08:59:11;;;;;;;3.17;0.88;;;20.10;89.60;;;;;;5036708;28;20068;-74
2021/08/29 09:01:37;;;;;;;1.92;0.85;;;19.50;88.70;;;;;;5044236;28;20056;-74
2021/08/29 09:04:04;;;;;;;1.77;0.73;;;19.30;89.70;;;;;;5049748;28;20028;-74
2021/08/29 09:06:33;;;;;;;3.00;0.77;;;19.50;90.60;;;;;;5042334;28;20409;-74
2021/08/29 09:09:01;;;;;;;3.72;1.02;;;19.60;91.00;;;;;;5049509;28;20037;-74
2021/08/29 09:11:27;;;;;;;5.28;1.00;;;20.10;90.30;;;;;;5042354;28;20020;-74
2021/08/29 09:13:54;;;;;;;3.00;0.80;;;20.30;88.90;;;;;;5048564;28;20091;-74
2021/08/29 09:16:25;;;;;;;3.20;0.90;;;20.10;89.20;;;;;;5048493;28;20783;-74
2021/08/29 09:18:54;;;;;;;2.05;0.90;;;20.20;89.90;;;;;;5048654;28;20033;-74
2021/08/29 09:21:27;;;;;;;2.80;0.70;;;20.50;89.20;;;;;;5049211;28;20057;-75
2021/08/29 09:23:55;;;;;;;2.03;1.02;;;20.80;88.20;;;;;;5045915;28;20061;-74
2021/08/29 09:26:23;;;;;;;2.40;0.70;;;20.50;88.20;;;;;;5047464;28;20067;-74
2021/08/29 09:28:50;;;;;;;3.83;0.70;;;20.30;88.10;;;;;;5047053;28;20116;-74
2021/08/29 09:31:18;;;;;;;4.97;0.80;;;19.80;89.30;;;;;;5048333;28;20040;-74
2021/08/29 09:33:57;;;;;;;1.80;0.80;;;19.50;90.00;;;;;;5048565;28;20401;-74
2021/08/29 09:36:32;;;;;;;1.35;0.70;;;19.90;90.60;;;;;;5048787;28;20059;-74
2021/08/29 09:39:11;;;;;;;1.95;0.70;;;19.50;90.60;;;;;;5048242;28;20041;-74
2021/08/29 09:41:37;;;;;;;2.08;0.70;;;19.70;90.80;;;;;;5039304;28;20029;-74
2021/08/29 09:44:23;;;;;;;2.20;0.60;;;19.60;91.00;;;;;;5048417;28;20021;-74
2021/08/29 09:46:56;;;;;;;3.17;0.80;;;19.40;90.70;;;;;;5048742;28;20037;-74
2021/08/29 09:49:26;;;;;;;7.68;3.15;;;19.50;91.30;;;;;;5046413;28;20041;-74
2021/08/29 09:51:52;;;;;;;10.93;8.50;;;19.80;91.20;;;;;;5046214;28;20064;-74
2021/08/29 09:54:32;;;;;;;112.43;91.68;;;20.20;90.90;;;;;;5048830;28;20064;-74
2021/08/29 09:56:59;;;;;;;3.22;1.70;;;20.70;90.50;;;;;;5051591;28;20049;-74
2021/08/29 09:59:44;;;;;;;1.90;0.70;;;20.90;89.90;;;;;;5049931;28;20044;-74
2021/08/29 10:02:12;;;;;;;1.88;0.80;;;21.30;89.90;;;;;;5044444;28;20029;-74
2021/08/29 10:04:41;;;;;;;2.13;1.00;;;21.10;89.30;;;;;;5050267;28;20104;-74
2021/08/29 10:07:15;;;;;;;2.70;0.80;;;21.20;89.30;;;;;;5048233;28;20865;-74
2021/08/29 10:09:41;;;;;;;2.72;0.90;;;21.00;90.10;;;;;;5049440;28;20024;-74
2021/08/29 10:12:08;;;;;;;1.58;0.70;;;21.50;90.60;;;;;;5051681;28;20033;-74
2021/08/29 10:14:36;;;;;;;1.92;0.75;;;21.90;90.10;;;;;;5049624;28;20033;-74
2021/08/29 10:17:03;;;;;;;1.88;0.80;;;21.70;89.00;;;;;;5049204;28;20123;-74
2021/08/29 10:19:29;;;;;;;3.25;0.93;;;21.30;88.00;;;;;;5048477;28;20025;-74
2021/08/29 10:21:56;;;;;;;2.58;0.60;;;21.20;88.60;;;;;;5049392;28;20156;-74
2021/08/29 10:24:23;;;;;;;1.63;0.80;;;21.40;90.30;;;;;;5046672;28;20029;-74
2021/08/29 10:26:54;;;;;;;2.22;0.95;;;21.80;88.70;;;;;;5047919;28;20029;-74
2021/08/29 10:29:25;;;;;;;2.37;0.53;;;21.80;88.60;;;;;;5046931;28;20021;-74
2021/08/29 10:32:03;;;;;;;1.77;0.60;;;21.70;89.20;;;;;;5048732;28;20028;-74
2021/08/29 10:34:31;;;;;;;2.00;0.77;;;21.70;86.70;;;;;;5046903;28;20044;-74
2021/08/29 10:36:57;;;;;;;2.45;0.60;;;21.40;88.90;;;;;;5045264;28;20545;-74
2021/08/29 10:39:24;;;;;;;2.05;0.50;;;21.10;87.20;;;;;;5049422;28;20106;-75
2021/08/29 10:41:50;;;;;;;1.50;0.60;;;21.20;88.30;;;;;;5045684;28;20029;-75
2021/08/29 10:44:17;;;;;;;1.48;0.50;;;21.40;90.10;;;;;;5047603;28;20029;-74
2021/08/29 10:46:45;;;;;;;2.50;0.60;;;21.60;87.00;;;;;;5048163;28;20032;-75
2021/08/29 10:49:15;;;;;;;2.80;0.50;;;21.20;85.10;;;;;;5047248;28;20037;-74
2021/08/29 10:51:44;;;;;;;2.42;0.82;;;21.50;89.60;;;;;;5047724;28;20029;-74
2021/08/29 10:54:12;;;;;;;1.35;0.65;;;21.50;90.60;;;;;;5048264;28;20021;-74
2021/08/29 10:56:38;;;;;;;1.60;0.70;;;21.30;89.80;;;;;;5047447;28;20040;-75
2021/08/29 10:59:12;;;;;;;1.80;0.70;;;21.30;90.50;;;;;;5043657;28;20032;-75
2021/08/29 11:01:45;;;;;;;2.67;0.70;;;21.50;90.20;;;;;;5048057;28;20516;-75
2021/08/29 11:04:25;;;;;;;2.13;0.77;;;21.50;90.10;;;;;;5046525;28;20025;-74
2021/08/29 11:06:58;;;;;;;3.67;0.77;;;21.70;89.70;;;;;;5048216;28;20509;-74
2021/08/29 11:09:36;;;;;;;1.42;0.60;;;21.80;89.00;;;;;;5043969;28;20029;-74
2021/08/29 11:12:13;;;;;;;1.25;0.55;;;21.70;88.80;;;;;;5040768;28;20152;-74
2021/08/29 11:14:41;;;;;;;1.65;0.60;;;21.90;88.30;;;;;;5045693;28;20037;-74
2021/08/29 11:17:15;;;;;;;1.13;0.52;;;21.60;87.90;;;;;;5048844;28;20059;-75
2021/08/29 11:19:43;;;;;;;1.45;0.50;;;21.90;88.90;;;;;;5044847;28;20064;-75
2021/08/29 11:22:09;;;;;;;2.33;0.50;;;22.40;86.80;;;;;;5047401;28;20044;-74
2021/08/29 11:25:00;;;;;;;3.90;0.70;;;22.50;87.20;;;;;;5047411;28;20037;-75
2021/08/29 11:27:35;;;;;;;1.40;0.60;;;22.40;86.90;;;;;;5047212;28;20033;-74
2021/08/29 11:30:37;;;;;;;3.42;0.73;;;22.70;87.40;;;;;;5047356;28;20109;-74
2021/08/29 11:33:03;;;;;;;2.33;0.65;;;22.80;85.90;;;;;;5048182;28;20064;-74
2021/08/29 11:35:33;;;;;;;1.60;0.60;;;22.80;86.60;;;;;;5048330;28;20031;-74
2021/08/29 11:38:06;;;;;;;1.75;0.65;;;22.90;85.60;;;;;;5058864;28;20064;-75
2021/08/29 11:41:05;;;;;;;3.47;0.60;;;22.80;85.00;;;;;;5046244;28;20123;-74
2021/08/29 11:43:34;;;;;;;4.35;0.73;;;23.20;86.60;;;;;;5047603;28;20040;-74
2021/08/29 11:46:11;;;;;;;1.92;0.70;;;23.30;85.20;;;;;;5047684;28;20063;-74
2021/08/29 11:48:48;;;;;;;2.72;0.60;;;23.70;84.10;;;;;;5041621;28;20041;-75
2021/08/29 11:51:14;;;;;;;1.38;0.50;;;23.90;83.40;;;;;;5046268;28;20025;-74
2021/08/29 11:53:48;;;;;;;2.10;0.60;;;24.00;83.20;;;;;;5047904;28;20048;-74
2021/08/29 11:56:17;;;;;;;1.42;0.50;;;23.80;83.00;;;;;;5044259;28;20028;-75
2021/08/29 11:58:45;;;;;;;1.35;0.52;;;23.70;83.50;;;;;;5047366;28;20783;-74
2021/08/29 12:01:11;;;;;;;2.88;0.70;;;24.10;84.10;;;;;;5037243;28;20111;-74
2021/08/29 12:03:38;;;;;;;2.05;0.50;;;24.00;82.70;;;;;;5048565;28;20033;-74
2021/08/29 12:06:07;;;;;;;2.80;0.50;;;24.40;82.50;;;;;;5046014;28;20095;-75
2021/08/29 12:09:11;;;;;;;3.35;0.50;;;24.50;82.40;;;;;;5043909;28;20478;-75
2021/08/29 12:11:40;;;;;;;1.20;0.45;;;23.90;81.30;;;;;;5017197;28;20084;-74
2021/08/29 12:14:14;;;;;;;1.38;0.60;;;23.80;81.10;;;;;;5046308;28;20065;-75
2021/08/29 12:17:07;;;;;;;0.95;0.30;;;24.00;80.30;;;;;;5045738;28;20029;-75
2021/08/29 12:19:37;;;;;;;1.85;0.47;;;24.30;80.30;;;;;;5042768;28;20388;-74
2021/08/29 12:22:09;;;;;;;1.30;0.60;;;24.30;80.10;;;;;;5041069;28;20671;-74
2021/08/29 12:24:39;;;;;;;0.77;0.40;;;24.00;79.60;;;;;;5043385;28;20132;-74
2021/08/29 12:27:13;;;;;;;2.42;0.50;;;23.70;81.00;;;;;;5044573;28;20040;-75
2021/08/29 12:29:45;;;;;;;1.42;0.50;;;23.90;81.30;;;;;;5041343;28;20041;-74
2021/08/29 12:32:16;;;;;;;1.48;0.50;;;24.00;79.60;;;;;;5046782;28;20037;-74
2021/08/29 12:34:49;;;;;;;0.73;0.40;;;24.20;80.40;;;;;;5047428;28;20041;-75
2021/08/29 12:37:15;;;;;;;4.05;0.50;;;24.20;79.00;;;;;;5046111;28;20048;-74
2021/08/29 12:39:41;;;;;;;3.13;0.40;;;24.30;79.40;;;;;;5044930;28;20041;-75
2021/08/29 12:42:21;;;;;;;1.58;0.50;;;24.30;78.10;;;;;;5045584;28;20079;-74
2021/08/29 12:44:48;;;;;;;2.35;0.40;;;24.20;77.20;;;;;;5046254;28;20112;-75
2021/08/29 12:47:14;;;;;;;4.38;0.50;;;24.40;79.50;;;;;;5051824;28;20079;-74
2021/08/29 12:49:41;;;;;;;1.35;0.50;;;24.50;78.00;;;;;;5044560;28;20021;-74